Time;durP1;ratioP1;P1;durP2;ratioP2;P2;SDS_P1;SDS_P2;PMS_P1;PMS_P2;Temp;Humidity;BMP_temperature;BMP_pressure;BME280_temperature;BME280_humidity;BME280_pressure;Samples;Min_cycle;Max_cycle;Signal;HPM_P1;HPM_P2
2024/03/03 00:00:35;;;;;;;37.60;26.75;;;;;;;11.84;73.53;99469.81;6181046;22;97193;-77
2024/03/03 00:03:00;;;;;;;40.00;27.63;;;;;;;11.85;73.51;99468.91;6155111;22;100270;-76
2024/03/03 00:05:26;;;;;;;38.88;27.85;;;;;;;11.62;73.94;99449.94;6155407;22;100225;-76
2024/03/03 00:07:51;;;;;;;44.83;28.88;;;;;;;11.64;74.41;99449.84;6181275;22;96634;-76
2024/03/03 00:10:17;;;;;;;44.15;29.58;;;;;;;11.79;74.14;99451.69;6183143;22;96717;-76
2024/03/03 00:12:42;;;;;;;43.40;29.25;;;;;;;11.91;73.41;99448.41;6180562;22;97377;-76
2024/03/03 00:15:08;;;;;;;48.15;29.85;;;;;;;11.96;73.25;99443.78;6155392;22;97845;-76
2024/03/03 00:17:34;;;;;;;44.20;29.58;;;;;;;11.89;73.48;99447.66;6154465;22;97034;-76
2024/03/03 00:19:59;;;;;;;45.80;29.58;;;;;;;11.95;73.33;99436.78;6155615;22;97094;-76
2024/03/03 00:22:25;;;;;;;44.25;28.92;;;;;;;12.02;73.42;99441.75;6130156;22;100352;-76
2024/03/03 00:24:50;;;;;;;40.40;29.00;;;;;;;12.10;73.36;99447.44;6182189;22;97517;-76
2024/03/03 00:27:16;;;;;;;40.13;28.83;;;;;;;11.94;73.08;99444.78;6155711;22;96920;-76
2024/03/03 00:29:41;;;;;;;44.38;29.63;;;;;;;11.97;73.54;99442.81;6180686;22;96834;-76
2024/03/03 00:32:07;;;;;;;46.03;29.25;;;;;;;11.94;73.26;99429.84;6155276;22;100126;-77
2024/03/03 00:34:32;;;;;;;48.50;30.08;;;;;;;11.88;73.14;99432.81;6155666;22;100707;-76
2024/03/03 00:36:58;;;;;;;40.83;29.67;;;;;;;11.82;73.61;99435.75;6180772;22;96728;-76
2024/03/03 00:39:23;;;;;;;43.42;29.48;;;;;;;11.91;73.30;99437.06;6182845;22;96597;-76
2024/03/03 00:41:49;;;;;;;44.63;31.23;;;;;;;11.80;73.89;99434.97;6180267;22;97527;-76
2024/03/03 00:44:14;;;;;;;49.42;31.90;;;;;;;11.57;74.43;99423.03;6155895;22;97815;-77
2024/03/03 00:46:40;;;;;;;49.45;31.42;;;;;;;11.54;74.61;99429.28;6182054;22;96591;-79
2024/03/03 00:49:05;;;;;;;45.95;31.50;;;;;;;11.53;75.28;99427.59;6181557;22;96674;-76
2024/03/03 00:51:31;;;;;;;49.20;32.78;;;;;;;11.43;75.90;99421.13;6154708;22;97350;-76
2024/03/03 00:53:56;;;;;;;48.65;33.92;;;;;;;11.43;75.34;99415.00;6154687;22;97374;-76
2024/03/03 00:56:22;;;;;;;50.80;32.92;;;;;;;11.47;76.00;99419.19;6154408;22;97107;-77
2024/03/03 00:58:48;;;;;;;51.72;33.42;;;;;;;11.54;75.44;99423.19;6155632;22;96762;-76
2024/03/03 01:01:15;;;;;;;47.10;32.10;;;;;;;11.64;75.14;99418.31;6180867;22;96720;-76
2024/03/03 01:03:41;;;;;;;50.88;33.30;;;;;;;11.60;75.29;99420.22;6180872;22;97348;-77
2024/03/03 01:06:06;;;;;;;46.83;33.80;;;;;;;11.59;74.76;99417.69;6128816;22;97139;-77
2024/03/03 01:08:32;;;;;;;51.05;35.33;;;;;;;11.66;74.69;99425.16;6180254;22;97096;-76
2024/03/03 01:10:57;;;;;;;56.95;35.25;;;;;;;11.70;74.71;99412.72;6179035;22;97900;-76
2024/03/03 01:13:23;;;;;;;45.97;32.75;;;;;;;11.76;73.90;99412.41;6181486;22;97177;-78
2024/03/03 01:15:49;;;;;;;48.33;34.38;;;;;;;11.75;74.48;99416.81;6179308;22;96955;-77
2024/03/03 01:18:14;;;;;;;51.47;34.25;;;;;;;11.68;74.65;99423.31;6179303;22;97132;-76
2024/03/03 01:20:40;;;;;;;50.20;33.42;;;;;;;11.62;74.65;99420.16;6154732;22;100525;-77
2024/03/03 01:23:05;;;;;;;50.17;33.90;;;;;;;11.55;75.11;99422.28;6180447;22;97262;-77
2024/03/03 01:25:31;;;;;;;46.83;33.40;;;;;;;11.43;75.18;99399.22;6154973;22;96623;-76
2024/03/03 01:27:56;;;;;;;50.25;34.08;;;;;;;11.70;74.57;99429.34;6180201;22;96769;-76
2024/03/03 01:30:22;;;;;;;47.35;33.00;;;;;;;11.73;74.26;99423.94;6180562;22;98537;-78
2024/03/03 01:32:48;;;;;;;44.70;33.63;;;;;;;11.72;74.29;99421.38;6154641;22;98759;-76
2024/03/03 01:35:13;;;;;;;52.35;35.38;;;;;;;11.65;74.55;99404.22;6155154;22;96576;-76
2024/03/03 01:37:39;;;;;;;48.00;33.67;;;;;;;11.70;74.25;99408.31;6180479;22;96805;-76
2024/03/03 01:40:05;;;;;;;49.80;34.85;;;;;;;11.84;73.82;99406.72;6154401;22;100536;-76
2024/03/03 01:42:31;;;;;;;51.05;34.67;;;;;;;11.81;73.97;99410.38;6154396;22;98404;-78
2024/03/03 01:44:56;;;;;;;53.75;34.70;;;;;;;11.73;73.81;99412.56;6154914;22;96627;-76
2024/03/03 01:47:22;;;;;;;46.35;34.45;;;;;;;11.71;73.87;99406.53;6155359;22;97133;-77
2024/03/03 01:49:50;;;;;;;53.78;34.78;;;;;;;11.73;73.83;99413.41;6182948;22;97208;-76
2024/03/03 01:52:16;;;;;;;50.13;34.85;;;;;;;11.73;73.75;99416.03;6156654;22;96647;-77
2024/03/03 01:54:42;;;;;;;50.08;33.80;;;;;;;11.74;73.55;99409.00;6181130;22;97010;-76
2024/03/03 01:57:11;;;;;;;51.92;34.53;;;;;;;11.52;74.42;99394.38;6181771;22;96777;-76
2024/03/03 01:59:37;;;;;;;51.95;34.72;;;;;;;11.43;75.11;99402.75;6180898;22;100130;-77
2024/03/03 02:02:03;;;;;;;51.75;34.72;;;;;;;11.29;75.62;99403.44;6180983;22;100398;-76
2024/03/03 02:04:29;;;;;;;52.67;35.75;;;;;;;11.12;76.07;99402.63;6156602;22;97303;-76
2024/03/03 02:06:55;;;;;;;49.35;35.28;;;;;;;11.01;76.40;99398.72;6181551;22;96691;-77
2024/03/03 02:09:21;;;;;;;55.58;35.85;;;;;;;10.94;76.66;99399.09;6182907;22;97469;-76
2024/03/03 02:11:47;;;;;;;54.67;35.90;;;;;;;10.93;76.14;99386.91;6181764;22;100711;-77
2024/03/03 02:14:13;;;;;;;52.53;36.85;;;;;;;10.92;76.80;99400.97;6181628;22;96607;-81
2024/03/03 02:16:38;;;;;;;52.00;35.15;;;;;;;10.99;76.73;99397.13;6130610;22;97413;-76
2024/03/03 02:19:04;;;;;;;51.60;36.60;;;;;;;10.88;76.56;99403.78;6180857;22;97803;-77
2024/03/03 02:21:30;;;;;;;50.35;36.00;;;;;;;10.87;76.66;99395.94;6130105;22;100411;-78
2024/03/03 02:23:55;;;;;;;52.22;34.28;;;;;;;10.98;76.71;99390.16;6155616;22;96681;-78
2024/03/03 02:26:22;;;;;;;49.40;35.22;;;;;;;10.91;76.92;99389.63;6179962;22;96884;-79
2024/03/03 02:28:49;;;;;;;55.05;35.17;;;;;;;10.98;76.13;99388.38;6129966;22;98567;-80
2024/03/03 02:31:15;;;;;;;57.42;37.90;;;;;;;10.93;76.12;99371.16;6154565;22;100071;-78
2024/03/03 02:33:40;;;;;;;49.17;34.70;;;;;;;10.84;76.37;99362.81;6156253;22;96759;-78
2024/03/03 02:36:06;;;;;;;49.63;33.90;;;;;;;10.90;76.57;99368.69;6156395;22;97103;-78
2024/03/03 02:38:32;;;;;;;47.42;32.97;;;;;;;10.94;76.48;99378.97;6180537;22;97306;-78
2024/03/03 02:40:57;;;;;;;50.92;34.58;;;;;;;10.90;76.55;99376.56;6180868;22;97281;-78
2024/03/03 02:43:23;;;;;;;49.42;33.45;;;;;;;10.95;75.90;99374.56;6155536;22;96769;-79
2024/03/03 02:45:48;;;;;;;47.10;32.13;;;;;;;10.99;76.01;99368.22;6181113;22;96685;-78
2024/03/03 02:48:14;;;;;;;51.83;34.55;;;;;;;10.94;75.82;99364.97;6155326;22;100638;-78
2024/03/03 02:50:39;;;;;;;45.40;32.08;;;;;;;10.99;75.25;99352.47;6155452;22;100707;-79
2024/03/03 02:53:05;;;;;;;46.45;33.03;;;;;;;11.10;75.47;99364.13;6156296;22;96774;-79
2024/03/03 02:55:30;;;;;;;51.38;33.17;;;;;;;11.19;74.47;99365.44;6180584;22;97465;-78
2024/03/03 02:57:57;;;;;;;52.40;33.78;;;;;;;11.15;74.91;99370.94;6181328;22;97386;-80
2024/03/03 03:00:22;;;;;;;47.53;33.08;;;;;;;10.93;75.36;99366.75;6181474;22;97402;-79
2024/03/03 03:02:48;;;;;;;46.50;32.40;;;;;;;10.84;75.90;99373.31;6156007;22;96676;-79
2024/03/03 03:05:14;;;;;;;47.80;32.13;;;;;;;10.82;75.71;99380.44;6155944;22;96776;-78
2024/03/03 03:07:39;;;;;;;49.42;32.13;;;;;;;10.79;75.73;99362.22;6180326;22;97339;-79
2024/03/03 03:10:07;;;;;;;47.25;33.67;;;;;;;10.70;75.86;99359.19;6180143;22;98448;-79
2024/03/03 03:12:33;;;;;;;50.90;33.28;;;;;;;10.79;75.96;99375.34;6182211;22;96877;-79
2024/03/03 03:14:58;;;;;;;44.47;30.42;;;;;;;10.71;75.77;99372.25;6181058;22;96740;-79
2024/03/03 03:17:24;;;;;;;44.10;29.92;;;;;;;10.80;75.62;99371.78;6129743;22;100394;-78
2024/03/03 03:19:49;;;;;;;44.05;29.52;;;;;;;10.86;75.53;99365.38;6180582;22;100559;-78
2024/03/03 03:22:15;;;;;;;46.92;32.22;;;;;;;11.00;75.01;99377.81;6180752;22;96839;-78
2024/03/03 03:24:42;;;;;;;46.97;30.83;;;;;;;10.92;74.89;99366.84;6181560;22;97320;-79
2024/03/03 03:27:07;;;;;;;48.95;31.48;;;;;;;10.88;75.39;99372.25;6180724;22;100751;-78
2024/03/03 03:29:33;;;;;;;43.63;29.38;;;;;;;10.93;74.80;99372.00;6180626;22;97554;-78
2024/03/03 03:31:58;;;;;;;43.75;29.00;;;;;;;11.02;75.02;99370.69;6180758;22;96655;-78
2024/03/03 03:34:24;;;;;;;47.22;29.83;;;;;;;11.03;74.52;99357.50;6182385;22;96919;-79
2024/03/03 03:36:49;;;;;;;42.55;27.95;;;;;;;11.04;74.21;99366.22;6180243;22;100306;-79
2024/03/03 03:39:15;;;;;;;40.28;27.75;;;;;;;11.06;74.42;99370.47;6180535;22;97714;-78
2024/03/03 03:41:45;;;;;;;43.10;28.02;;;;;;;10.93;74.24;99358.88;6181020;22;96944;-78
2024/03/03 03:44:11;;;;;;;42.08;28.63;;;;;;;10.91;74.35;99367.75;6182451;22;96944;-78
2024/03/03 03:46:37;;;;;;;39.95;27.35;;;;;;;10.93;74.55;99369.38;6155148;22;100876;-80
2024/03/03 03:49:02;;;;;;;39.55;27.70;;;;;;;10.92;74.39;99375.56;6180676;22;97276;-79
2024/03/03 03:51:28;;;;;;;41.67;27.98;;;;;;;10.86;74.65;99363.59;6130643;22;96880;-79
2024/03/03 03:53:55;;;;;;;38.60;27.60;;;;;;;10.95;74.63;99369.31;6155793;22;96733;-79
2024/03/03 03:56:20;;;;;;;40.78;27.95;;;;;;;10.87;74.39;99370.53;6179354;22;97360;-79
2024/03/03 03:58:46;;;;;;;39.47;26.73;;;;;;;10.75;74.98;99371.16;6179857;22;97768;-78
2024/03/03 04:01:20;;;;;;;42.13;27.80;;;;;;;10.59;75.34;99365.84;6181333;22;96644;-81
2024/03/03 04:03:46;;;;;;;37.15;27.10;;;;;;;10.70;75.22;99365.28;6155684;22;96783;-79
2024/03/03 04:06:11;;;;;;;39.58;27.55;;;;;;;10.74;74.98;99371.25;6179701;22;97399;-81
2024/03/03 04:08:37;;;;;;;39.65;28.05;;;;;;;10.52;75.48;99363.56;6180107;22;97624;-78
2024/03/03 04:11:03;;;;;;;45.13;28.17;;;;;;;10.56;75.69;99372.97;6180571;22;97066;-79
2024/03/03 04:13:29;;;;;;;41.15;28.27;;;;;;;10.56;75.37;99366.00;6130896;22;97071;-79
2024/03/03 04:15:54;;;;;;;34.67;25.80;;;;;;;10.63;75.75;99371.78;6179991;22;100522;-79
2024/03/03 04:18:20;;;;;;;43.10;26.05;;;;;;;10.56;75.04;99368.63;6179744;22;97925;-79
2024/03/03 04:20:45;;;;;;;36.60;26.02;;;;;;;10.51;75.48;99349.63;6130169;22;97090;-79
2024/03/03 04:23:11;;;;;;;35.10;26.23;;;;;;;10.41;75.64;99361.47;6208419;22;96979;-79
2024/03/03 04:25:36;;;;;;;40.55;26.75;;;;;;;10.52;75.54;99376.69;6185968;22;98572;-79
2024/03/03 04:28:02;;;;;;;39.20;27.33;;;;;;;10.62;75.16;99370.94;6211753;22;97235;-79
2024/03/03 04:30:28;;;;;;;36.08;26.08;;;;;;;10.60;74.57;99358.81;6160343;22;97109;-79
2024/03/03 04:32:53;;;;;;;39.67;26.40;;;;;;;10.70;74.43;99364.44;6210858;22;96752;-79
2024/03/03 04:35:19;;;;;;;38.17;25.88;;;;;;;10.55;74.76;99355.56;6160048;22;100384;-79
2024/03/03 04:37:44;;;;;;;36.63;25.85;;;;;;;10.53;74.66;99360.88;6212553;22;97248;-78
2024/03/03 04:40:10;;;;;;;40.65;26.00;;;;;;;10.68;74.17;99367.16;6160296;22;96670;-79
2024/03/03 04:42:36;;;;;;;37.17;26.17;;;;;;;10.73;74.12;99361.66;6160259;22;97020;-79
2024/03/03 04:45:01;;;;;;;36.28;26.75;;;;;;;10.83;74.31;99368.16;6159662;22;99046;-78
2024/03/03 04:47:27;;;;;;;39.58;26.27;;;;;;;10.83;74.03;99355.03;6133714;22;100608;-80
2024/03/03 04:49:52;;;;;;;38.65;25.88;;;;;;;10.77;74.04;99345.69;6185287;22;97183;-81
2024/03/03 04:52:18;;;;;;;45.63;27.95;;;;;;;10.82;73.80;99356.81;6212191;22;96892;-79
2024/03/03 04:54:43;;;;;;;34.28;26.05;;;;;;;10.69;74.15;99353.09;6159774;22;97444;-80
2024/03/03 04:57:09;;;;;;;33.03;25.00;;;;;;;10.61;74.42;99344.75;6159966;22;97534;-79
2024/03/03 04:59:34;;;;;;;38.03;25.92;;;;;;;10.70;73.91;99343.44;6185241;22;97179;-79
2024/03/03 05:02:00;;;;;;;35.33;24.20;;;;;;;10.65;73.88;99341.06;6212872;22;96688;-78
2024/03/03 05:04:27;;;;;;;33.47;24.67;;;;;;;10.78;73.65;99351.78;6159304;22;97324;-78
2024/03/03 05:06:52;;;;;;;34.00;23.83;;;;;;;10.82;73.28;99354.19;6184947;22;97699;-81
2024/03/03 05:09:18;;;;;;;31.48;21.92;;;;;;;10.81;73.00;99351.63;6158169;22;96718;-79
2024/03/03 05:11:44;;;;;;;34.13;20.58;;;;;;;10.70;72.82;99356.56;6159698;22;96745;-79
2024/03/03 05:14:09;;;;;;;28.40;20.38;;;;;;;10.52;73.54;99356.53;6211622;22;97871;-79
2024/03/03 05:16:35;;;;;;;28.45;21.17;;;;;;;10.60;73.70;99361.44;6159252;22;97304;-80
2024/03/03 05:19:00;;;;;;;34.30;20.70;;;;;;;10.50;73.73;99360.16;6159823;22;96632;-78
2024/03/03 05:21:26;;;;;;;28.65;21.27;;;;;;;10.56;73.33;99360.75;6159859;22;96831;-79
2024/03/03 05:23:51;;;;;;;27.33;20.08;;;;;;;10.52;73.36;99355.69;6185644;22;97417;-78
2024/03/03 05:26:17;;;;;;;28.88;20.08;;;;;;;10.48;73.08;99355.00;6186583;22;97891;-81
2024/03/03 05:28:43;;;;;;;26.73;18.70;;;;;;;10.37;73.26;99355.53;6161128;22;97191;-79
2024/03/03 05:31:09;;;;;;;27.75;20.52;;;;;;;10.26;73.34;99356.94;6136077;22;96784;-78
2024/03/03 05:33:34;;;;;;;26.75;19.58;;;;;;;10.09;73.47;99350.69;6159710;22;97148;-79
2024/03/03 05:36:00;;;;;;;26.83;19.30;;;;;;;10.04;74.40;99357.97;6160559;22;97294;-79
2024/03/03 05:38:25;;;;;;;29.42;18.27;;;;;;;10.04;74.12;99352.72;6186057;22;96770;-79
2024/03/03 05:40:51;;;;;;;26.40;18.98;;;;;;;10.05;73.96;99356.19;6135932;22;96909;-78
2024/03/03 05:43:17;;;;;;;22.88;17.60;;;;;;;9.95;74.12;99366.25;6186333;22;97592;-78
2024/03/03 05:45:42;;;;;;;22.10;17.70;;;;;;;9.96;74.03;99358.31;6185892;22;97301;-78
2024/03/03 05:48:08;;;;;;;27.33;17.95;;;;;;;9.90;74.06;99360.38;6185738;22;96765;-78
2024/03/03 05:50:33;;;;;;;25.38;18.80;;;;;;;9.66;74.47;99350.09;6213771;22;96674;-78
2024/03/03 05:52:59;;;;;;;25.67;17.90;;;;;;;9.91;74.04;99352.44;6185662;22;97990;-79
2024/03/03 05:55:24;;;;;;;26.17;18.42;;;;;;;9.92;73.56;99356.75;6186073;22;100206;-78
2024/03/03 05:57:50;;;;;;;26.23;17.83;;;;;;;10.04;73.53;99351.88;6160132;22;97362;-78
2024/03/03 06:00:16;;;;;;;22.85;16.88;;;;;;;10.04;73.01;99360.59;6160559;22;96852;-78
2024/03/03 06:02:42;;;;;;;22.15;15.70;;;;;;;9.94;73.53;99368.00;6159837;22;97387;-78
2024/03/03 06:05:08;;;;;;;18.75;15.23;;;;;;;9.99;73.05;99370.44;6186113;22;97549;-78
2024/03/03 06:07:33;;;;;;;24.75;16.15;;;;;;;10.01;73.13;99368.59;6185711;22;96653;-79
2024/03/03 06:09:59;;;;;;;25.85;16.48;;;;;;;9.98;73.14;99374.00;6161240;22;97012;-77
2024/03/03 06:12:25;;;;;;;19.80;14.70;;;;;;;9.96;72.92;99381.91;6160478;22;97300;-78
2024/03/03 06:14:52;;;;;;;19.58;14.40;;;;;;;10.03;72.70;99373.75;6160976;22;97918;-78
2024/03/03 06:17:17;;;;;;;22.40;16.05;;;;;;;9.97;72.86;99385.38;6208803;22;97091;-80
2024/03/03 06:19:43;;;;;;;23.02;14.38;;;;;;;10.11;72.83;99374.25;6184810;22;96734;-80
2024/03/03 06:22:09;;;;;;;21.80;15.20;;;;;;;10.22;71.85;99376.38;6152988;22;100136;-78
2024/03/03 06:24:34;;;;;;;20.50;15.20;;;;;;;10.22;72.14;99379.84;6180804;22;97285;-79
2024/03/03 06:27:00;;;;;;;21.58;14.73;;;;;;;10.23;71.57;99365.78;6179294;22;97136;-79
2024/03/03 06:29:26;;;;;;;17.95;12.63;;;;;;;10.47;71.18;99365.56;6179831;22;97134;-79
2024/03/03 06:31:51;;;;;;;22.77;13.02;;;;;;;10.47;70.73;99368.19;6129023;22;100853;-79
2024/03/03 06:34:18;;;;;;;22.23;13.57;;;;;;;10.60;70.22;99370.16;6179004;22;97558;-78
2024/03/03 06:36:43;;;;;;;17.30;12.93;;;;;;;10.73;69.82;99374.78;6153985;22;96707;-78
2024/03/03 06:39:12;;;;;;;16.40;12.82;;;;;;;10.68;70.03;99379.44;6179915;22;97196;-78
2024/03/03 06:41:37;;;;;;;16.83;13.02;;;;;;;10.68;69.81;99382.91;6153283;22;99839;-80
2024/03/03 06:44:03;;;;;;;17.35;12.75;;;;;;;10.91;69.37;99386.13;6179026;22;97367;-79
2024/03/03 06:46:28;;;;;;;18.70;12.25;;;;;;;10.98;69.39;99377.88;6152827;22;96736;-80
2024/03/03 06:48:54;;;;;;;17.77;12.45;;;;;;;11.00;69.13;99381.28;6154485;22;97024;-78
2024/03/03 06:51:19;;;;;;;19.73;11.70;;;;;;;11.10;68.91;99381.66;6179393;22;100139;-79
2024/03/03 06:53:45;;;;;;;18.80;12.15;;;;;;;11.16;68.26;99359.50;6178810;22;98049;-79
2024/03/03 06:56:15;;;;;;;18.55;12.93;;;;;;;11.28;68.38;99377.25;6128961;22;96656;-78
2024/03/03 06:58:42;;;;;;;15.45;10.95;;;;;;;11.32;68.59;99376.16;6179269;22;97194;-79
2024/03/03 07:01:07;;;;;;;15.57;11.13;;;;;;;11.51;67.85;99360.28;6151483;22;97747;-78
2024/03/03 07:06:16;;;;;;;17.17;11.45;;;;;;;12.10;66.30;99374.66;6179959;22;96674;-78
2024/03/03 07:08:42;;;;;;;15.05;10.65;;;;;;;11.97;66.22;99366.56;6180647;22;97422;-78
2024/03/03 07:11:07;;;;;;;17.25;10.85;;;;;;;12.17;65.69;99383.88;6180478;22;97375;-81
2024/03/03 07:13:34;;;;;;;16.58;11.95;;;;;;;12.20;65.04;99374.97;6180312;22;97316;-78
2024/03/03 07:15:59;;;;;;;16.27;12.05;;;;;;;12.25;65.35;99372.94;6181310;22;96896;-78
2024/03/03 07:18:26;;;;;;;16.58;12.18;;;;;;;12.34;65.05;99376.84;6152724;22;97051;-78
2024/03/03 07:20:52;;;;;;;21.00;13.18;;;;;;;12.14;65.62;99373.53;6154257;22;99426;-78
2024/03/03 07:23:17;;;;;;;17.67;13.27;;;;;;;11.96;65.78;99362.25;6180227;22;97494;-78
2024/03/03 07:25:43;;;;;;;23.40;15.35;;;;;;;11.65;67.15;99384.03;6129434;22;96685;-80
2024/03/03 07:28:08;;;;;;;22.42;16.45;;;;;;;11.73;67.34;99381.00;6180423;22;96682;-79
2024/03/03 07:30:34;;;;;;;26.55;16.83;;;;;;;11.75;67.16;99374.75;6129213;22;100169;-78
2024/03/03 07:32:59;;;;;;;26.55;17.15;;;;;;;11.87;67.17;99380.28;6155419;22;97529;-78
2024/03/03 07:35:25;;;;;;;27.35;18.25;;;;;;;11.99;66.37;99382.28;6179502;22;96705;-78
2024/03/03 07:37:51;;;;;;;24.38;17.58;;;;;;;12.13;66.07;99382.38;6155407;22;96807;-78
2024/03/03 07:40:17;;;;;;;27.40;18.73;;;;;;;11.86;66.57;99381.22;6154883;22;100543;-78
2024/03/03 07:42:43;;;;;;;25.02;18.13;;;;;;;11.82;67.25;99375.25;6180044;22;97285;-81
2024/03/03 07:45:09;;;;;;;27.25;18.48;;;;;;;11.91;66.67;99374.78;6180389;22;96718;-78
2024/03/03 07:47:34;;;;;;;35.55;19.48;;;;;;;12.07;66.30;99377.44;6154521;22;97342;-81
2024/03/03 07:50:00;;;;;;;27.90;20.02;;;;;;;12.27;65.33;99386.84;6130490;22;100165;-78
2024/03/03 07:52:26;;;;;;;32.13;19.63;;;;;;;12.21;66.15;99388.03;6180679;22;97221;-78
2024/03/03 07:54:51;;;;;;;29.25;19.45;;;;;;;12.01;66.23;99390.91;6155210;22;96601;-78
2024/03/03 07:57:17;;;;;;;29.95;20.17;;;;;;;11.79;67.09;99392.03;6152066;22;97177;-78
2024/03/03 07:59:42;;;;;;;29.75;20.10;;;;;;;11.82;66.73;99398.94;6178078;22;97301;-80
2024/03/03 08:02:08;;;;;;;28.42;19.63;;;;;;;11.81;67.56;99380.59;6179220;22;97845;-80
2024/03/03 08:04:33;;;;;;;27.05;19.35;;;;;;;11.87;66.84;99375.03;6153786;22;97001;-80
2024/03/03 08:06:59;;;;;;;28.33;19.27;;;;;;;12.20;65.56;99386.34;6176826;22;97160;-79
2024/03/03 08:09:24;;;;;;;27.17;19.67;;;;;;;12.41;65.04;99392.19;6153427;22;100626;-79
2024/03/03 08:11:50;;;;;;;27.75;17.98;;;;;;;12.42;64.81;99399.16;6180276;22;97185;-79
2024/03/03 08:14:15;;;;;;;29.98;19.42;;;;;;;12.24;65.61;99381.75;6178640;22;97157;-79
2024/03/03 08:16:41;;;;;;;42.13;19.25;;;;;;;12.10;65.48;99360.63;6179843;22;96728;-79
2024/03/03 08:19:07;;;;;;;29.20;19.38;;;;;;;12.13;66.04;99379.72;6177758;22;97268;-78
2024/03/03 08:21:32;;;;;;;24.77;16.65;;;;;;;12.07;66.09;99387.97;6177737;22;97621;-78
2024/03/03 08:23:58;;;;;;;25.13;17.38;;;;;;;12.30;65.22;99378.78;6178946;22;96688;-78
2024/03/03 08:26:27;;;;;;;23.20;16.38;;;;;;;12.64;64.51;99363.72;6178237;22;96758;-78
2024/03/03 08:28:52;;;;;;;28.30;16.88;;;;;;;13.72;62.19;99376.63;6130078;22;100753;-78
2024/03/03 08:31:18;;;;;;;23.42;15.52;;;;;;;14.42;59.34;99373.94;6154671;22;97522;-78
2024/03/03 08:33:44;;;;;;;20.65;14.63;;;;;;;14.79;57.51;99355.72;6180556;22;96645;-79
2024/03/03 08:36:10;;;;;;;20.20;13.90;;;;;;;15.34;56.32;99355.47;6179148;22;97742;-79
2024/03/03 08:38:36;;;;;;;21.05;14.43;;;;;;;15.88;55.11;99349.06;6154962;22;100851;-76
2024/03/03 08:41:03;;;;;;;20.42;13.82;;;;;;;16.22;53.61;99359.88;6128871;22;100591;-80
2024/03/03 08:43:29;;;;;;;21.63;13.63;;;;;;;16.52;53.02;99355.00;6154356;22;96731;-77
2024/03/03 08:45:55;;;;;;;18.08;13.38;;;;;;;17.12;51.56;99350.53;6174957;22;97245;-76
2024/03/03 08:48:21;;;;;;;17.83;12.27;;;;;;;17.33;50.95;99355.16;6176754;22;99288;-76
2024/03/03 08:50:47;;;;;;;20.50;13.50;;;;;;;17.41;50.29;99342.97;6153154;22;96865;-78
2024/03/03 08:53:13;;;;;;;15.93;11.80;;;;;;;17.59;49.56;99358.44;6127172;22;97102;-76
2024/03/03 08:55:39;;;;;;;18.88;12.98;;;;;;;17.65;49.51;99349.97;6178341;22;96746;-78
2024/03/03 08:58:05;;;;;;;16.10;11.98;;;;;;;17.52;49.01;99341.31;6179638;22;97226;-77
2024/03/03 09:00:30;;;;;;;23.23;12.32;;;;;;;18.00;48.68;99333.09;6174335;22;97350;-79
2024/03/03 09:02:56;;;;;;;17.55;11.57;;;;;;;18.17;47.70;99332.59;6149082;22;98457;-82
2024/03/03 09:05:22;;;;;;;18.55;11.57;;;;;;;17.99;48.48;99344.69;6151674;22;97279;-82
2024/03/03 09:07:47;;;;;;;19.13;11.07;;;;;;;17.89;47.79;99323.38;6149404;22;100557;-81
2024/03/03 09:10:13;;;;;;;14.40;11.35;;;;;;;18.36;47.13;99325.78;6151379;22;100302;-82
2024/03/03 09:12:38;;;;;;;17.40;11.13;;;;;;;18.36;47.39;99331.94;6151038;22;97265;-81
2024/03/03 09:15:04;;;;;;;17.85;11.70;;;;;;;18.92;46.54;99325.56;6126893;22;97256;-81
2024/03/03 09:17:30;;;;;;;17.17;11.70;;;;;;;19.25;45.34;99329.81;6177918;22;97619;-81
2024/03/03 09:19:55;;;;;;;13.07;10.32;;;;;;;19.56;44.58;99309.38;6174879;22;100485;-82
2024/03/03 09:22:21;;;;;;;14.45;11.48;;;;;;;20.09;43.83;99322.47;6126052;22;97220;-81
2024/03/03 09:24:47;;;;;;;17.98;11.40;;;;;;;20.72;42.90;99322.13;6127263;22;96735;-81
2024/03/03 09:27:13;;;;;;;15.75;11.05;;;;;;;20.40;43.04;99319.72;6175817;22;97624;-81
2024/03/03 09:29:39;;;;;;;14.48;11.10;;;;;;;20.66;42.33;99321.88;6151655;22;100310;-81
2024/03/03 09:32:04;;;;;;;13.60;9.93;;;;;;;19.73;43.27;99323.91;6151809;22;96665;-81
2024/03/03 09:34:30;;;;;;;14.15;9.73;;;;;;;20.23;42.95;99337.22;6152352;22;98023;-81
2024/03/03 09:36:56;;;;;;;14.90;10.82;;;;;;;20.27;42.76;99314.63;6175641;22;98011;-81
2024/03/03 09:39:21;;;;;;;13.93;9.52;;;;;;;20.85;41.92;99318.34;6152225;22;97317;-82
2024/03/03 09:41:50;;;;;;;13.43;9.13;;;;;;;19.10;44.87;99318.66;6151674;22;97334;-81
2024/03/03 09:44:19;;;;;;;13.65;9.48;;;;;;;18.72;45.64;99325.38;6178122;22;97229;-82
2024/03/03 09:46:46;;;;;;;14.57;9.18;;;;;;;19.10;45.58;99318.66;6151181;22;98059;-81
2024/03/03 09:49:16;;;;;;;13.38;10.48;;;;;;;19.83;44.31;99331.94;6152039;22;100325;-84
2024/03/03 09:51:44;;;;;;;14.07;9.52;;;;;;;20.12;43.50;99321.34;6128101;22;97189;-83
2024/03/03 09:54:15;;;;;;;19.83;9.32;;;;;;;20.01;43.54;99318.81;6152353;22;97162;-82
2024/03/03 09:56:51;;;;;;;10.70;8.65;;;;;;;19.63;43.76;99334.50;6150766;22;97872;-83
2024/03/03 09:59:17;;;;;;;13.05;9.05;;;;;;;18.58;46.40;99333.66;6152466;22;97871;-84
2024/03/03 10:01:50;;;;;;;16.65;9.70;;;;;;;17.62;48.45;99324.53;6150894;22;96567;-82
2024/03/03 10:04:16;;;;;;;12.57;8.88;;;;;;;17.35;49.05;99338.16;6151406;22;97073;-82
2024/03/03 10:06:43;;;;;;;11.13;8.15;;;;;;;16.90;49.51;99340.72;6175826;22;97286;-85
2024/03/03 10:09:14;;;;;;;12.65;8.07;;;;;;;16.60;50.50;99317.34;6151915;22;100186;-86
2024/03/03 10:11:41;;;;;;;14.13;9.93;;;;;;;16.93;50.28;99334.34;6178504;22;97097;-85
2024/03/03 10:14:13;;;;;;;18.60;8.65;;;;;;;16.80;50.03;99341.53;6128268;22;96663;-87
2024/03/03 10:16:39;;;;;;;12.25;9.05;;;;;;;16.60;50.78;99343.84;6125538;22;99410;-86
2024/03/03 10:19:05;;;;;;;14.88;9.45;;;;;;;16.06;51.72;99326.59;6152671;22;98918;-86
2024/03/03 10:21:38;;;;;;;11.15;9.07;;;;;;;15.82;53.06;99336.28;6154941;22;97089;-87
2024/03/03 10:24:25;;;;;;;13.38;9.10;;;;;;;15.84;53.16;99332.56;6157521;22;97257;-86
2024/03/03 10:26:55;;;;;;;14.15;9.20;;;;;;;15.77;53.59;99330.50;6156731;22;97958;-87
2024/03/03 10:29:24;;;;;;;12.93;8.43;;;;;;;15.73;53.44;99324.56;6157183;22;99926;-92
2024/03/03 10:31:50;;;;;;;12.88;8.73;;;;;;;15.56;53.44;99312.50;6134695;22;97201;-89
2024/03/03 10:34:15;;;;;;;11.02;8.07;;;;;;;15.67;53.91;99318.81;6159679;22;96623;-90
2024/03/03 10:36:41;;;;;;;15.45;7.85;;;;;;;15.75;53.09;99327.94;6159133;22;96959;-89
2024/03/03 10:39:09;;;;;;;11.80;8.45;;;;;;;15.59;53.61;99320.22;6134548;22;99466;-91
2024/03/03 10:41:36;;;;;;;12.30;8.07;;;;;;;15.71;53.36;99307.13;6184640;22;97121;-92
2024/03/03 10:44:02;;;;;;;14.18;8.43;;;;;;;15.96;52.68;99311.47;6160849;22;96734;-90
2024/03/03 10:46:27;;;;;;;14.40;8.23;;;;;;;15.98;52.51;99310.41;6159905;22;97274;-88
2024/03/03 10:48:55;;;;;;;10.93;8.00;;;;;;;15.45;52.90;99266.63;6135293;22;100547;-88
2024/03/03 10:51:20;;;;;;;11.57;7.55;;;;;;;15.73;52.75;99305.19;6135110;22;97081;-87
2024/03/03 10:53:51;;;;;;;12.88;7.68;;;;;;;15.79;52.55;99307.41;6160082;22;96776;-91
2024/03/03 10:56:18;;;;;;;9.57;6.70;;;;;;;15.66;52.36;99306.56;6158967;22;97946;-90
2024/03/03 10:58:44;;;;;;;9.15;7.00;;;;;;;15.53;53.32;99285.41;6158088;22;97492;-93
2024/03/03 11:01:10;;;;;;;11.95;8.15;;;;;;;15.45;53.62;99290.41;6137265;22;97155;-90
2024/03/03 11:03:35;;;;;;;10.82;7.35;;;;;;;15.47;53.92;99297.25;6164183;22;96934;-87
2024/03/03 11:06:03;;;;;;;10.57;7.57;;;;;;;15.23;53.79;99276.03;6161238;22;99649;-91
2024/03/03 11:08:28;;;;;;;11.20;7.57;;;;;;;15.06;53.85;99277.19;6184557;22;97875;-95
2024/03/03 11:10:58;;;;;;;12.00;8.52;;;;;;;15.27;53.77;99296.03;6189875;22;96940;-90
2024/03/03 11:13:24;;;;;;;13.15;6.78;;;;;;;15.21;53.44;99256.78;6163927;22;97218;-88